Time;durP1;ratioP1;P1;durP2;ratioP2;P2;SDS_P1;SDS_P2;PMS_P1;PMS_P2;Temp;Humidity;BMP_temperature;BMP_pressure;BME280_temperature;BME280_humidity;BME280_pressure;Samples;Min_cycle;Max_cycle;Signal;HPM_P1;HPM_P2
2022/12/27 00:00:35;;;;;;;;;;;32.10;79.60;;;;;;5030685;28;19975;-73
2022/12/27 00:03:01;;;;;;;;;;;32.20;80.50;;;;;;5030031;28;19928;-73
2022/12/27 00:05:28;;;;;;;;;;;32.20;80.00;;;;;;5030393;28;19964;-76
2022/12/27 00:07:55;;;;;;;;;;;32.60;80.40;;;;;;5028201;28;20252;-70
2022/12/27 00:10:22;;;;;;;;;;;32.90;79.80;;;;;;5028661;28;20302;-75
2022/12/27 00:12:48;;;;;;;;;;;33.20;78.60;;;;;;5028599;28;19918;-71
2022/12/27 00:15:15;;;;;;;;;;;33.20;76.60;;;;;;5024830;28;19959;-77
2022/12/27 00:17:41;;;;;;;;;;;33.10;76.40;;;;;;5030646;28;19928;-70
2022/12/27 00:20:08;;;;;;;;;;;33.20;76.80;;;;;;5031114;28;19920;-75
2022/12/27 00:22:35;;;;;;;;;;;33.50;76.00;;;;;;5016592;28;19977;-74
2022/12/27 00:25:02;;;;;;;;;;;33.40;76.90;;;;;;5022007;28;19928;-70
2022/12/27 00:27:28;;;;;;;;;;;33.50;77.30;;;;;;5020997;28;19920;-71
2022/12/27 00:29:55;;;;;;;;;;;33.40;78.60;;;;;;5029975;28;19913;-72
2022/12/27 00:32:22;;;;;;;;;;;33.50;78.60;;;;;;5034035;28;19987;-76
2022/12/27 00:34:48;;;;;;;;;;;34.10;77.70;;;;;;5029960;28;19917;-78
2022/12/27 00:37:15;;;;;;;;;;;34.30;77.40;;;;;;5028106;28;19960;-73
2022/12/27 00:39:42;;;;;;;;;;;34.40;75.30;;;;;;5030067;28;19917;-74
2022/12/27 00:42:08;;;;;;;;;;;34.60;77.00;;;;;;5032675;28;19916;-72
2022/12/27 00:44:35;;;;;;;;;;;34.60;76.20;;;;;;5028817;28;19921;-73
2022/12/27 00:47:02;;;;;;;;;;;34.40;75.60;;;;;;5030246;28;19917;-77
2022/12/27 00:49:28;;;;;;;;;;;34.10;76.60;;;;;;5016846;28;19920;-75
2022/12/27 00:51:55;;;;;;;;;;;34.20;76.90;;;;;;5023474;28;19922;-72
2022/12/27 00:54:21;;;;;;;;;;;34.50;76.80;;;;;;5024659;28;19913;-73
2022/12/27 00:56:48;;;;;;;;;;;34.70;75.30;;;;;;5031926;28;19928;-79
2022/12/27 00:59:15;;;;;;;;;;;34.90;78.10;;;;;;5029491;28;20008;-75
2022/12/27 01:01:41;;;;;;;;;;;35.10;73.60;;;;;;5031141;28;19995;-73
2022/12/27 01:04:10;;;;;;;;;;;35.10;72.70;;;;;;5029615;28;19920;-75
2022/12/27 01:06:37;;;;;;;;;;;35.10;72.00;;;;;;5032080;28;19917;-78
2022/12/27 01:09:04;;;;;;;;;;;35.00;72.90;;;;;;5029849;28;19913;-75
2022/12/27 01:11:31;;;;;;;;;;;35.30;74.50;;;;;;5029136;28;19917;-75
2022/12/27 01:13:59;;;;;;;;;;;35.50;72.40;;;;;;5021810;28;19917;-72
2022/12/27 01:16:26;;;;;;;;;;;35.70;72.10;;;;;;5018636;28;19917;-77
2022/12/27 01:18:53;;;;;;;;;;;35.60;71.30;;;;;;5029663;28;19913;-71
2022/12/27 01:21:21;;;;;;;;;;;35.80;70.50;;;;;;5028870;28;19925;-72
2022/12/27 01:23:48;;;;;;;;;;;35.60;67.90;;;;;;5028289;28;19921;-70
2022/12/27 01:26:17;;;;;;;;;;;35.50;67.90;;;;;;5028723;28;19920;-73
2022/12/27 01:28:44;;;;;;;;;;;35.00;69.00;;;;;;5029561;28;20418;-73
2022/12/27 01:31:12;;;;;;;;;;;35.00;69.20;;;;;;5030112;28;20410;-78
2022/12/27 01:33:38;;;;;;;;;;;35.40;70.60;;;;;;5026941;28;20015;-73
2022/12/27 01:36:12;;;;;;;;;;;35.90;69.70;;;;;;5030766;28;19920;-76
2022/12/27 01:38:41;;;;;;;;;;;36.20;68.60;;;;;;5026941;28;19924;-76
2022/12/27 01:43:58;;;;;;;;;;;36.00;69.50;;;;;;5007867;28;19913;-75
2022/12/27 01:46:25;;;;;;;;;;;36.20;68.30;;;;;;5027962;28;19917;-71
2022/12/27 01:48:52;;;;;;;;;;;36.40;69.60;;;;;;5030841;28;19960;-78
2022/12/27 01:51:19;;;;;;;;;;;36.60;69.60;;;;;;5014168;28;20326;-74
2022/12/27 01:53:48;;;;;;;;;;;36.70;70.50;;;;;;5020487;28;19914;-70
2022/12/27 01:56:17;;;;;;;;;;;37.00;70.30;;;;;;5029093;28;19913;-70
2022/12/27 01:58:56;;;;;;;;;;;36.90;67.60;;;;;;5026383;28;20295;-78
2022/12/27 02:01:33;;;;;;;;;;;36.60;69.90;;;;;;5025541;28;19913;-73
2022/12/27 02:04:02;;;;;;;;;;;36.60;71.90;;;;;;5016682;28;19923;-71
2022/12/27 02:06:30;;;;;;;;;;;36.70;69.70;;;;;;5018677;28;19914;-74
2022/12/27 02:09:08;;;;;;;;;;;36.80;67.00;;;;;;5022951;28;20461;-70
2022/12/27 02:11:51;;;;;;;;;;;36.80;67.30;;;;;;5028181;28;19917;-70
2022/12/27 02:14:20;;;;;;;;;;;37.00;66.70;;;;;;5025245;28;20283;-70
2022/12/27 02:16:47;;;;;;;;;;;37.10;70.40;;;;;;5027040;28;20008;-69
2022/12/27 02:19:27;;;;;;;;;;;37.30;72.70;;;;;;5025468;28;19924;-72
2022/12/27 02:22:12;;;;;;;;;;;37.50;70.30;;;;;;5026361;28;19928;-72
2022/12/27 02:24:41;;;;;;;;;;;37.40;67.50;;;;;;5013580;28;20334;-70
2022/12/27 02:27:29;;;;;;;;;;;37.40;69.80;;;;;;5022264;28;20193;-71
2022/12/27 02:29:56;;;;;;;;;;;37.40;69.40;;;;;;5022159;28;19920;-68
2022/12/27 02:32:51;;;;;;;;;;;37.20;71.70;;;;;;5026435;28;19917;-74
2022/12/27 02:35:23;;;;;;;;;;;36.60;71.20;;;;;;5009118;28;19913;-70
2022/12/27 02:37:53;;;;;;;;;;;36.40;72.50;;;;;;5021155;28;19948;-73
2022/12/27 02:54:37;;;;;;;;;;;36.70;67.40;;;;;;5018787;28;19928;-69
2022/12/27 02:57:09;;;;;;;;;;;36.70;67.70;;;;;;5016055;28;19921;-72
2022/12/27 03:03:19;;;;;;;;;;;36.90;67.70;;;;;;5022601;28;19921;-72
2022/12/27 03:05:44;;;;;;;;;;;37.50;67.80;;;;;;4990768;28;19975;-70
2022/12/27 03:08:17;;;;;;;;;;;37.10;66.40;;;;;;5023819;28;19956;-69
2022/12/27 03:17:01;;;;;;;;;;;35.70;69.60;;;;;;5021556;28;19976;-70
2022/12/27 03:25:27;;;;;;;;;;;36.10;65.30;;;;;;5019876;28;19924;-69
2022/12/27 03:34:30;;;;;;;;;;;36.80;67.30;;;;;;5019362;28;19927;-68
2022/12/27 03:40:03;;;;;;;;;;;36.80;67.40;;;;;;5007050;28;19968;-71
2022/12/27 03:45:19;;;;;;;;;;;36.80;66.30;;;;;;5019370;28;19919;-67
2022/12/27 03:48:04;;;;;;;;;;;36.60;66.40;;;;;;5019326;28;19940;-70
2022/12/27 03:50:34;;;;;;;;;;;36.30;67.00;;;;;;5018817;28;19920;-70
2022/12/27 03:53:06;;;;;;;;;;;36.30;66.50;;;;;;5028534;28;20354;-69
2022/12/27 03:55:33;;;;;;;;;;;36.40;66.20;;;;;;5036617;28;19956;-70
2022/12/27 03:58:00;;;;;;;;;;;36.50;65.90;;;;;;5031671;28;19959;-68
2022/12/27 04:00:26;;;;;;;;;;;36.60;66.20;;;;;;5031924;28;19913;-70
2022/12/27 04:02:53;;;;;;;;;;;36.60;65.80;;;;;;5027198;28;20275;-68
2022/12/27 04:05:20;;;;;;;;;;;36.50;66.40;;;;;;5034547;28;19917;-68
2022/12/27 04:35:13;;;;;;;;;;;36.30;64.50;;;;;;5001589;28;20005;-73
2022/12/27 04:37:41;;;;;;;;;;;36.10;64.00;;;;;;5022908;28;20295;-69
2022/12/27 04:56:47;;;;;;;;;;;35.80;61.30;;;;;;5000906;28;20001;-81
2022/12/27 05:02:05;;;;;;;;;;;35.70;61.40;;;;;;5009385;28;19932;-77
2022/12/27 05:04:32;;;;;;;;;;;35.70;61.50;;;;;;4993967;28;19914;-73
2022/12/27 05:13:58;;;;;;;;;;;35.40;61.20;;;;;;5027942;28;19917;-73
2022/12/27 05:15:15;;;;;;;;;;;35.40;60.40;;;;;;5007668;28;19959;-73
2022/12/27 05:17:41;;;;;;;;;;;35.20;60.80;;;;;;5022227;28;19928;-74
2022/12/27 05:20:08;;;;;;;;;;;35.20;59.90;;;;;;5011958;28;19914;-73
2022/12/27 05:25:36;;;;;;;;;;;35.20;59.70;;;;;;5032441;28;19943;-71
2022/12/27 05:28:03;;;;;;;;;;;35.30;58.90;;;;;;5022441;28;19913;-75
2022/12/27 05:30:33;;;;;;;;;;;35.10;58.60;;;;;;5022990;28;19931;-73
2022/12/27 05:33:00;;;;;;;;;;;34.90;58.00;;;;;;5039227;28;20162;-74
2022/12/27 05:35:27;;;;;;;;;;;34.80;58.30;;;;;;5044223;28;19914;-82
2022/12/27 05:37:54;;;;;;;;;;;34.70;58.30;;;;;;5033636;28;19921;-75
2022/12/27 05:40:21;;;;;;;;;;;34.50;59.10;;;;;;5012734;28;19917;-77
2022/12/27 05:42:48;;;;;;;;;;;34.50;59.60;;;;;;5018255;28;19921;-74
2022/12/27 05:45:14;;;;;;;;;;;34.40;58.60;;;;;;5035212;28;19917;-78
2022/12/27 05:47:41;;;;;;;;;;;34.20;58.00;;;;;;5026707;28;20366;-74
2022/12/27 05:50:09;;;;;;;;;;;34.10;59.40;;;;;;5030979;28;20343;-75
2022/12/27 05:52:36;;;;;;;;;;;34.20;59.70;;;;;;5018103;28;19913;-69
2022/12/27 05:55:02;;;;;;;;;;;34.10;58.10;;;;;;5027452;28;19921;-70
2022/12/27 05:57:29;;;;;;;;;;;34.00;59.20;;;;;;5034044;28;19966;-70
2022/12/27 05:59:56;;;;;;;;;;;34.00;59.30;;;;;;5037643;28;19914;-76
2022/12/27 06:02:23;;;;;;;;;;;33.90;59.30;;;;;;5018087;28;19963;-73
2022/12/27 06:04:49;;;;;;;;;;;34.00;58.10;;;;;;5038974;28;19996;-72
2022/12/27 06:07:16;;;;;;;;;;;34.10;59.70;;;;;;5035699;28;19967;-75
2022/12/27 06:09:43;;;;;;;;;;;34.10;58.20;;;;;;5017758;28;19918;-75
2022/12/27 06:12:09;;;;;;;;;;;33.90;56.90;;;;;;5025379;28;19972;-73
2022/12/27 06:14:36;;;;;;;;;;;33.50;57.00;;;;;;5027126;28;20007;-74
2022/12/27 06:17:03;;;;;;;;;;;33.20;55.30;;;;;;5036214;28;19988;-71
2022/12/27 06:19:29;;;;;;;;;;;33.20;57.20;;;;;;5017524;28;19920;-74
2022/12/27 06:21:56;;;;;;;;;;;33.10;57.80;;;;;;5036673;28;20367;-71
2022/12/27 06:24:26;;;;;;;;;;;33.00;59.80;;;;;;5030834;28;20236;-74
2022/12/27 06:26:53;;;;;;;;;;;32.90;59.10;;;;;;5033744;28;19921;-72
2022/12/27 06:29:20;;;;;;;;;;;32.90;57.80;;;;;;5025851;28;19951;-71
2022/12/27 06:31:46;;;;;;;;;;;32.90;58.80;;;;;;5040959;28;19920;-73
2022/12/27 06:34:13;;;;;;;;;;;32.70;58.40;;;;;;5028690;28;19925;-75
2022/12/27 06:36:40;;;;;;;;;;;32.60;59.30;;;;;;5041123;28;19917;-75
2022/12/27 06:39:06;;;;;;;;;;;32.60;59.60;;;;;;5034198;28;19916;-76
2022/12/27 06:41:33;;;;;;;;;;;32.50;59.20;;;;;;5034548;28;20011;-73
2022/12/27 06:44:00;;;;;;;;;;;32.60;63.10;;;;;;5036246;28;20315;-74
2022/12/27 06:46:26;;;;;;;;;;;32.60;61.70;;;;;;5042700;28;19955;-75
2022/12/27 06:48:53;;;;;;;;;;;32.50;61.20;;;;;;5037582;28;19959;-74
2022/12/27 06:51:20;;;;;;;;;;;32.30;63.60;;;;;;5024866;28;20380;-74
2022/12/27 06:53:47;;;;;;;;;;;32.10;64.70;;;;;;5021398;28;19913;-73
2022/12/27 06:56:15;;;;;;;;;;;31.90;64.40;;;;;;5037753;28;19913;-77
2022/12/27 06:58:42;;;;;;;;;;;31.80;63.90;;;;;;5030470;28;19925;-76
2022/12/27 07:01:10;;;;;;;;;;;31.80;65.20;;;;;;5018572;28;19912;-73
2022/12/27 07:03:36;;;;;;;;;;;31.80;65.00;;;;;;5032903;28;19913;-70
2022/12/27 07:06:08;;;;;;;;;;;31.70;65.50;;;;;;5037819;28;19913;-79
2022/12/27 07:08:35;;;;;;;;;;;31.60;66.60;;;;;;5041122;28;20327;-72
2022/12/27 07:11:03;;;;;;;;;;;31.60;67.50;;;;;;5023157;28;19912;-69
2022/12/27 07:13:32;;;;;;;;;;;31.60;68.30;;;;;;5034096;28;19928;-71
2022/12/27 07:15:59;;;;;;;;;;;31.50;69.20;;;;;;5036208;28;19920;-72
2022/12/27 07:18:26;;;;;;;;;;;31.40;70.00;;;;;;5037147;28;19926;-70
2022/12/27 07:20:53;;;;;;;;;;;31.20;69.80;;;;;;5020137;28;19920;-74
2022/12/27 07:23:20;;;;;;;;;;;31.00;69.80;;;;;;5029778;28;20028;-76
2022/12/27 07:25:46;;;;;;;;;;;30.90;70.20;;;;;;5041736;28;19963;-72
2022/12/27 07:28:13;;;;;;;;;;;30.80;70.60;;;;;;5032964;28;19913;-75
2022/12/27 07:30:40;;;;;;;;;;;30.60;69.80;;;;;;5036652;28;19916;-77
2022/12/27 07:33:08;;;;;;;;;;;30.40;70.70;;;;;;5044048;28;20019;-77
2022/12/27 07:35:34;;;;;;;;;;;30.20;70.60;;;;;;5042365;28;19921;-74
2022/12/27 07:38:01;;;;;;;;;;;30.10;71.30;;;;;;5022903;28;19925;-75
2022/12/27 07:40:28;;;;;;;;;;;29.90;71.90;;;;;;5040025;28;20425;-74
2022/12/27 07:42:54;;;;;;;;;;;29.80;71.90;;;;;;5031997;28;20283;-73
2022/12/27 07:45:21;;;;;;;;;;;29.70;72.70;;;;;;5046460;28;19917;-72
2022/12/27 07:47:48;;;;;;;;;;;29.60;72.50;;;;;;5048828;28;20517;-73
2022/12/27 07:50:14;;;;;;;;;;;29.40;72.80;;;;;;5040269;28;20283;-72
2022/12/27 07:52:41;;;;;;;;;;;29.30;72.30;;;;;;5037205;28;19925;-74
2022/12/27 07:55:08;;;;;;;;;;;29.10;74.40;;;;;;5045449;28;20004;-73
2022/12/27 07:57:34;;;;;;;;;;;28.90;75.00;;;;;;5029023;28;20078;-72
2022/12/27 08:00:01;;;;;;;;;;;28.80;75.00;;;;;;5016059;28;19925;-70
2022/12/27 08:02:29;;;;;;;;;;;28.80;75.40;;;;;;5028997;28;20020;-70
2022/12/27 08:04:56;;;;;;;;;;;28.80;75.10;;;;;;5005924;28;19914;-77
2022/12/27 08:07:25;;;;;;;;;;;28.70;75.60;;;;;;5038616;28;19913;-77
2022/12/27 08:09:51;;;;;;;;;;;28.60;75.60;;;;;;5035639;28;19921;-77
2022/12/27 08:12:18;;;;;;;;;;;28.40;76.90;;;;;;5036277;28;19913;-74
2022/12/27 08:14:45;;;;;;;;;;;28.30;76.50;;;;;;5019070;28;20012;-75
2022/12/27 08:17:15;;;;;;;;;;;28.20;76.20;;;;;;5036555;28;20401;-72
2022/12/27 08:19:42;;;;;;;;;;;28.20;76.70;;;;;;5031084;28;19939;-76
2022/12/27 08:22:10;;;;;;;;;;;28.10;77.60;;;;;;5037223;28;19961;-73
2022/12/27 08:24:37;;;;;;;;;;;28.00;78.20;;;;;;5017151;28;19949;-77
2022/12/27 08:27:04;;;;;;;;;;;27.90;78.70;;;;;;5030083;28;19975;-77
2022/12/27 08:29:30;;;;;;;;;;;27.80;78.70;;;;;;5029586;28;19963;-74
2022/12/27 08:31:57;;;;;;;;;;;27.80;78.90;;;;;;5030722;28;19991;-72
2022/12/27 08:34:23;;;;;;;;;;;27.70;79.80;;;;;;5018182;28;19920;-70
2022/12/27 08:36:51;;;;;;;;;;;27.60;80.50;;;;;;5037048;28;19917;-69
2022/12/27 08:39:18;;;;;;;;;;;27.50;81.30;;;;;;5039766;28;19917;-70
2022/12/27 08:41:45;;;;;;;;;;;27.50;81.60;;;;;;5031313;28;19925;-68
2022/12/27 08:44:11;;;;;;;;;;;27.60;82.70;;;;;;5023372;28;19913;-68
2022/12/27 08:46:38;;;;;;;;;;;27.40;82.50;;;;;;5037043;28;19913;-70
2022/12/27 08:49:05;;;;;;;;;;;27.40;82.60;;;;;;5026554;28;19914;-71
2022/12/27 08:51:31;;;;;;;;;;;27.40;83.00;;;;;;5034299;28;19974;-70
2022/12/27 08:53:58;;;;;;;;;;;27.30;83.70;;;;;;5034710;28;19952;-69
2022/12/27 08:56:25;;;;;;;;;;;27.20;84.20;;;;;;5042507;28;20378;-69
2022/12/27 08:58:52;;;;;;;;;;;27.10;84.90;;;;;;5036847;28;20387;-69
2022/12/27 09:01:18;;;;;;;;;;;27.00;85.50;;;;;;5013138;28;19984;-69
2022/12/27 09:03:45;;;;;;;;;;;26.90;85.60;;;;;;5023106;28;19961;-69
2022/12/27 09:06:16;;;;;;;;;;;26.80;85.90;;;;;;5029027;28;20405;-68
2022/12/27 09:08:44;;;;;;;;;;;26.70;86.10;;;;;;5025530;28;20003;-69
2022/12/27 09:11:12;;;;;;;;;;;26.60;86.80;;;;;;5030270;28;19917;-68
2022/12/27 09:13:39;;;;;;;;;;;26.40;87.50;;;;;;5030794;28;20291;-69
2022/12/27 09:16:07;;;;;;;;;;;26.20;88.10;;;;;;5030025;28;19927;-70
2022/12/27 09:18:34;;;;;;;;;;;26.20;89.70;;;;;;5030393;28;19925;-69
2022/12/27 09:21:07;;;;;;;;;;;26.00;90.00;;;;;;5032291;28;19967;-69
2022/12/27 09:23:34;;;;;;;;;;;26.00;90.40;;;;;;5035813;28;20386;-69
2022/12/27 09:26:07;;;;;;;;;;;25.90;90.30;;;;;;5048301;28;20011;-71
2022/12/27 09:28:34;;;;;;;;;;;25.90;90.70;;;;;;5035549;28;19913;-70
2022/12/27 09:31:01;;;;;;;;;;;25.80;91.00;;;;;;5033368;28;19962;-71
2022/12/27 09:33:28;;;;;;;;;;;25.60;91.30;;;;;;5038299;28;19978;-70
2022/12/27 09:36:05;;;;;;;;;;;25.50;91.50;;;;;;5044584;28;19913;-70
2022/12/27 09:38:32;;;;;;;;;;;25.30;91.70;;;;;;5029565;28;20367;-70
2022/12/27 09:41:00;;;;;;;;;;;25.20;92.10;;;;;;5027105;28;19917;-70
2022/12/27 09:43:47;;;;;;;;;;;25.00;92.30;;;;;;5032588;28;20283;-69
2022/12/27 09:46:16;;;;;;;;;;;24.90;92.50;;;;;;4990835;28;19919;-70
2022/12/27 09:48:44;;;;;;;;;;;24.80;92.70;;;;;;5036519;28;19917;-71
2022/12/27 09:51:13;;;;;;;;;;;24.70;92.90;;;;;;5050641;28;19923;-71
2022/12/27 09:53:58;;;;;;;;;;;24.60;93.50;;;;;;5035426;28;19963;-71
2022/12/27 09:56:27;;;;;;;;;;;24.50;94.10;;;;;;5027810;28;19948;-70
2022/12/27 09:59:16;;;;;;;;;;;24.40;94.80;;;;;;5037815;28;20008;-71
2022/12/27 10:01:43;;;;;;;;;;;24.30;95.30;;;;;;5021459;28;20328;-73
2022/12/27 10:04:13;;;;;;;;;;;24.30;95.90;;;;;;5029951;28;19944;-71
2022/12/27 10:06:49;;;;;;;;;;;24.30;96.40;;;;;;5036557;28;19963;-70
2022/12/27 10:09:35;;;;;;;;;;;24.30;96.70;;;;;;5028099;28;20367;-72
2022/12/27 10:12:08;;;;;;;;;;;24.20;97.20;;;;;;5027772;28;19920;-70
2022/12/27 10:14:37;;;;;;;;;;;24.10;97.90;;;;;;5027784;28;20039;-70
2022/12/27 10:17:04;;;;;;;;;;;24.00;98.30;;;;;;5024040;28;20283;-68
2022/12/27 10:19:38;;;;;;;;;;;24.00;98.70;;;;;;5041874;28;19928;-69
2022/12/27 10:22:13;;;;;;;;;;;24.00;98.90;;;;;;5037482;28;19940;-69
2022/12/27 10:24:44;;;;;;;;;;;23.90;99.50;;;;;;5027998;28;19924;-69
2022/12/27 10:27:15;;;;;;;;;;;23.80;99.90;;;;;;5046254;28;20387;-69
2022/12/27 10:29:42;;;;;;;;;;;23.80;99.90;;;;;;5040610;28;19923;-69
2022/12/27 10:32:11;;;;;;;;;;;23.70;99.90;;;;;;5031750;28;19917;-69
2022/12/27 10:34:38;;;;;;;;;;;23.60;99.90;;;;;;5016651;28;19920;-68
2022/12/27 10:37:05;;;;;;;;;;;23.50;99.90;;;;;;5042205;28;19917;-68
2022/12/27 10:39:34;;;;;;;;;;;23.50;99.90;;;;;;5037339;28;20285;-69
2022/12/27 10:42:06;;;;;;;;;;;23.50;99.90;;;;;;5014474;28;19928;-70
2022/12/27 10:44:33;;;;;;;;;;;23.50;99.90;;;;;;5024411;28;19914;-68
2022/12/27 10:47:00;;;;;;;;;;;23.50;99.90;;;;;;5035571;28;20371;-70
2022/12/27 10:49:31;;;;;;;;;;;23.50;99.90;;;;;;5020013;28;19920;-70
2022/12/27 10:52:05;;;;;;;;;;;23.40;99.90;;;;;;5026504;28;20360;-68
2022/12/27 10:54:32;;;;;;;;;;;23.30;99.90;;;;;;5033309;28;20287;-69
2022/12/27 10:57:25;;;;;;;;;;;23.20;99.90;;;;;;5034964;28;20252;-71
2022/12/27 11:00:12;;;;;;;;;;;23.10;99.90;;;;;;5034064;28;19913;-70
2022/12/27 11:02:49;;;;;;;;;;;23.00;99.90;;;;;;5028626;28;19917;-68
2022/12/27 11:05:23;;;;;;;;;;;22.90;99.90;;;;;;5021764;28;20314;-70
2022/12/27 11:07:50;;;;;;;;;;;22.80;99.90;;;;;;5024225;28;20282;-70
2022/12/27 11:10:20;;;;;;;;;;;22.80;99.90;;;;;;5038409;28;19923;-70
2022/12/27 11:13:01;;;;;;;;;;;22.80;99.90;;;;;;5035451;28;19975;-69
2022/12/27 11:15:29;;;;;;;;;;;22.70;99.90;;;;;;5034537;28;20275;-70
2022/12/27 11:17:57;;;;;;;;;;;22.60;99.90;;;;;;5046929;28;19921;-70
2022/12/27 11:20:31;;;;;;;;;;;22.60;99.90;;;;;;5045603;28;19917;-72
2022/12/27 11:23:00;;;;;;;;;;;22.60;99.90;;;;;;5045481;28;19921;-71
2022/12/27 11:25:28;;;;;;;;;;;22.60;99.90;;;;;;5020462;28;19917;-72
2022/12/27 11:28:00;;;;;;;;;;;22.50;99.90;;;;;;5037121;28;20291;-71
2022/12/27 11:30:29;;;;;;;;;;;22.60;99.90;;;;;;5040939;28;19917;-70
2022/12/27 11:33:02;;;;;;;;;;;22.60;99.90;;;;;;5044073;28;19928;-71
2022/12/27 11:35:29;;;;;;;;;;;22.50;99.90;;;;;;5039720;28;20715;-69
2022/12/27 11:37:56;;;;;;;;;;;22.50;99.90;;;;;;5047212;28;20401;-71
2022/12/27 11:40:26;;;;;;;;;;;22.50;99.90;;;;;;5033979;28;19913;-71
2022/12/27 11:42:58;;;;;;;;;;;22.40;99.90;;;;;;5035954;28;20056;-73
2022/12/27 11:45:39;;;;;;;;;;;22.30;99.90;;;;;;5031786;28;20011;-74
2022/12/27 11:48:06;;;;;;;;;;;22.30;99.90;;;;;;5049393;28;19955;-71
2022/12/27 11:50:51;;;;;;;;;;;22.20;99.90;;;;;;5039163;28;20015;-73
2022/12/27 11:53:34;;;;;;;;;;;22.10;99.90;;;;;;5035141;28;19917;-73
2022/12/27 11:56:01;;;;;;;;;;;22.10;99.90;;;;;;5028074;28;20375;-73
2022/12/27 11:58:45;;;;;;;;;;;22.00;99.90;;;;;;5030716;28;20051;-69
2022/12/27 12:01:35;;;;;;;;;;;21.90;99.90;;;;;;5039359;28;20282;-73
2022/12/27 12:04:20;;;;;;;;;;;21.90;99.90;;;;;;4993286;28;20379;-71
2022/12/27 12:06:51;;;;;;;;;;;21.80;99.90;;;;;;5032235;28;20375;-70
2022/12/27 12:09:18;;;;;;;;;;;21.80;99.90;;;;;;5028044;28;19921;-71
2022/12/27 12:11:48;;;;;;;;;;;21.90;99.90;;;;;;5034929;28;20273;-70
2022/12/27 12:14:32;;;;;;;;;;;21.90;99.90;;;;;;5030704;28;19913;-70
2022/12/27 12:17:14;;;;;;;;;;;21.90;99.90;;;;;;5047575;28;19912;-70
2022/12/27 12:19:59;;;;;;;;;;;21.90;99.90;;;;;;5032496;28;19920;-70
2022/12/27 12:22:50;;;;;;;;;;;21.90;99.90;;;;;;5022527;28;20004;-70
2022/12/27 12:25:51;;;;;;;;;;;21.90;99.90;;;;;;5037202;28;19919;-70
2022/12/27 12:28:21;;;;;;;;;;;21.90;99.90;;;;;;4950793;28;20375;-70
2022/12/27 12:31:03;;;;;;;;;;;21.90;99.90;;;;;;5026206;28;19913;-70
2022/12/27 12:33:30;;;;;;;;;;;22.00;99.90;;;;;;5029406;28;19913;-72
2022/12/27 12:35:56;;;;;;;;;;;22.00;99.90;;;;;;5035275;28;20386;-69
2022/12/27 12:38:43;;;;;;;;;;;22.00;99.90;;;;;;5038525;28;19925;-71
2022/12/27 12:41:22;;;;;;;;;;;22.10;99.90;;;;;;5031066;28;19917;-71
2022/12/27 12:44:00;;;;;;;;;;;22.10;99.90;;;;;;5029661;28;19917;-71
2022/12/27 12:46:44;;;;;;;;;;;22.20;99.90;;;;;;5033266;28;19921;-69
2022/12/27 12:49:11;;;;;;;;;;;22.20;99.90;;;;;;5021988;28;19940;-67
2022/12/27 12:51:56;;;;;;;;;;;22.30;99.90;;;;;;5029020;28;20007;-70
2022/12/27 12:54:29;;;;;;;;;;;22.30;99.90;;;;;;5025544;28;19914;-70
2022/12/27 12:57:07;;;;;;;;;;;22.30;99.90;;;;;;5038833;28;19913;-72
2022/12/27 12:59:48;;;;;;;;;;;22.30;99.90;;;;;;5020497;28;19922;-69
2022/12/27 13:02:41;;;;;;;;;;;22.20;99.90;;;;;;5012579;28;19917;-75
2022/12/27 13:05:22;;;;;;;;;;;22.30;99.90;;;;;;5015236;28;19914;-69
2022/12/27 13:08:00;;;;;;;;;;;22.30;99.90;;;;;;5020206;28;19960;-71
2022/12/27 13:10:45;;;;;;;;;;;22.30;99.90;;;;;;5037750;28;19917;-71
2022/12/27 13:13:16;;;;;;;;;;;22.30;99.90;;;;;;5026684;28;19913;-71
2022/12/27 13:15:57;;;;;;;;;;;22.40;99.90;;;;;;5013799;28;19917;-70
2022/12/27 13:18:27;;;;;;;;;;;22.40;99.90;;;;;;5017251;28;20394;-73
2022/12/27 13:21:00;;;;;;;;;;;22.40;99.90;;;;;;5025376;28;20307;-72
2022/12/27 13:23:45;;;;;;;;;;;22.40;99.90;;;;;;5008744;28;20376;-71
2022/12/27 13:26:24;;;;;;;;;;;22.40;99.90;;;;;;5010088;28;20379;-68
2022/12/27 13:29:06;;;;;;;;;;;22.40;99.90;;;;;;4999703;28;19918;-67
2022/12/27 13:31:39;;;;;;;;;;;22.40;99.90;;;;;;5000359;28;19917;-73
2022/12/27 13:34:07;;;;;;;;;;;22.40;99.90;;;;;;5009270;28;20366;-73
2022/12/27 13:36:36;;;;;;;;;;;22.40;99.90;;;;;;5010146;28;19921;-75
2022/12/27 13:39:16;;;;;;;;;;;22.40;99.90;;;;;;5005219;28;19964;-73
2022/12/27 13:41:56;;;;;;;;;;;22.40;99.90;;;;;;4982401;28;20331;-75
2022/12/27 13:44:35;;;;;;;;;;;22.40;99.90;;;;;;5004352;28;19914;-71
2022/12/27 13:47:20;;;;;;;;;;;22.40;99.90;;;;;;5011087;28;20376;-72
2022/12/27 13:50:02;;;;;;;;;;;22.40;99.90;;;;;;5006229;28;20378;-70
2022/12/27 13:52:28;;;;;;;;;;;22.40;99.90;;;;;;5008864;28;19921;-73
2022/12/27 13:55:18;;;;;;;;;;;22.40;99.90;;;;;;5021243;28;20264;-74
2022/12/27 13:58:03;;;;;;;;;;;22.40;99.90;;;;;;4995087;28;20344;-72
2022/12/27 14:00:48;;;;;;;;;;;22.40;99.90;;;;;;5007148;28;20378;-69
2022/12/27 14:03:33;;;;;;;;;;;22.40;99.90;;;;;;5008255;28;19936;-72
2022/12/27 14:06:09;;;;;;;;;;;22.40;99.90;;;;;;5004007;28;19920;-70
2022/12/27 14:08:46;;;;;;;;;;;22.30;99.90;;;;;;5008095;28;20459;-71
2022/12/27 14:11:33;;;;;;;;;;;22.40;99.90;;;;;;5007718;28;19917;-69
2022/12/27 14:14:00;;;;;;;;;;;22.30;99.90;;;;;;5006650;28;19924;-68
2022/12/27 14:16:46;;;;;;;;;;;22.30;99.90;;;;;;5010237;28;19914;-68
2022/12/27 14:19:13;;;;;;;;;;;22.30;99.90;;;;;;5005878;28;19929;-67
2022/12/27 14:21:45;;;;;;;;;;;22.20;99.90;;;;;;5017213;28;19979;-69
2022/12/27 14:24:30;;;;;;;;;;;22.20;99.90;;;;;;5020337;28;20333;-69
2022/12/27 14:27:15;;;;;;;;;;;22.20;99.90;;;;;;5024973;28;19917;-72
2022/12/27 14:29:58;;;;;;;;;;;22.20;99.90;;;;;;5017762;28;19959;-73
2022/12/27 14:32:32;;;;;;;;;;;22.20;99.90;;;;;;5030516;28;19919;-70
2022/12/27 14:35:17;;;;;;;;;;;22.20;99.90;;;;;;5029703;28;20393;-73
2022/12/27 14:37:43;;;;;;;;;;;22.20;99.90;;;;;;5015231;28;19940;-72
2022/12/27 14:40:27;;;;;;;;;;;22.20;99.90;;;;;;5021026;28;19932;-68
2022/12/27 14:43:04;;;;;;;;;;;22.20;99.90;;;;;;5021730;28;19921;-69
2022/12/27 14:45:50;;;;;;;;;;;22.20;99.90;;;;;;5013992;28;19921;-69
2022/12/27 14:48:25;;;;;;;;;;;22.20;99.90;;;;;;5017988;28;20294;-68
2022/12/27 14:51:11;;;;;;;;;;;22.20;99.90;;;;;;5021341;28;19924;-72
2022/12/27 14:53:48;;;;;;;;;;;22.20;99.90;;;;;;5021374;28;20433;-69
2022/12/27 14:56:18;;;;;;;;;;;22.10;99.90;;;;;;5012822;28;19918;-72
2022/12/27 14:59:03;;;;;;;;;;;22.20;99.90;;;;;;5018802;28;19947;-70
2022/12/27 15:01:48;;;;;;;;;;;22.20;99.90;;;;;;5022714;28;19927;-70
2022/12/27 15:04:17;;;;;;;;;;;22.10;99.90;;;;;;5018907;28;19936;-73
2022/12/27 15:06:53;;;;;;;;;;;22.10;99.90;;;;;;5026937;28;19910;-73
2022/12/27 15:09:25;;;;;;;;;;;22.20;99.90;;;;;;5022722;28;19917;-73
2022/12/27 15:12:03;;;;;;;;;;;22.20;99.90;;;;;;5021855;28;19917;-75
2022/12/27 15:14:42;;;;;;;;;;;22.20;99.90;;;;;;5026509;28;19953;-73
2022/12/27 15:17:15;;;;;;;;;;;22.20;99.90;;;;;;5030945;28;19916;-73
2022/12/27 15:19:45;;;;;;;;;;;22.10;99.90;;;;;;5012459;28;19997;-72
2022/12/27 15:22:17;;;;;;;;;;;22.10;99.90;;;;;;5016193;28;19921;-73
2022/12/27 15:24:53;;;;;;;;;;;22.10;99.90;;;;;;5027133;28;20271;-73
2022/12/27 15:27:28;;;;;;;;;;;22.10;99.90;;;;;;5005144;28;20260;-75
2022/12/27 15:30:11;;;;;;;;;;;22.10;99.90;;;;;;5028535;28;19986;-73
2022/12/27 15:32:59;;;;;;;;;;;22.00;99.90;;;;;;5026486;28;19913;-70
2022/12/27 15:35:38;;;;;;;;;;;22.00;99.90;;;;;;5027147;28;20095;-73
2022/12/27 15:38:14;;;;;;;;;;;22.00;99.90;;;;;;5027363;28;20379;-72
2022/12/27 15:40:41;;;;;;;;;;;22.00;99.90;;;;;;5031395;28;19917;-74
2022/12/27 15:43:13;;;;;;;;;;;22.00;99.90;;;;;;5027616;28;19935;-71
2022/12/27 15:45:52;;;;;;;;;;;22.00;99.90;;;;;;5031543;28;19913;-73
2022/12/27 15:48:25;;;;;;;;;;;22.00;99.90;;;;;;5026530;28;20345;-74
2022/12/27 15:51:10;;;;;;;;;;;22.00;99.90;;;;;;5019082;28;19913;-74
2022/12/27 15:53:36;;;;;;;;;;;22.00;99.90;;;;;;5031330;28;20375;-70
2022/12/27 15:56:03;;;;;;;;;;;22.10;99.90;;;;;;5020513;28;19917;-73
2022/12/27 15:58:29;;;;;;;;;;;22.10;99.90;;;;;;5022541;28;20332;-72
2022/12/27 16:01:14;;;;;;;;;;;22.10;99.90;;;;;;5031710;28;19920;-73
2022/12/27 16:03:42;;;;;;;;;;;22.00;99.90;;;;;;5024416;28;20376;-73
2022/12/27 16:06:29;;;;;;;;;;;22.10;99.90;;;;;;5028176;28;20359;-72
2022/12/27 16:09:14;;;;;;;;;;;22.10;99.90;;;;;;5024857;28;20304;-74
2022/12/27 16:11:59;;;;;;;;;;;22.10;99.90;;;;;;5021502;28;20453;-71
2022/12/27 16:14:30;;;;;;;;;;;22.10;99.90;;;;;;5026112;28;19960;-69
2022/12/27 16:17:17;;;;;;;;;;;22.10;99.90;;;;;;5013880;28;19910;-72
2022/12/27 16:19:46;;;;;;;;;;;22.10;99.90;;;;;;5009507;28;19921;-72
2022/12/27 16:22:28;;;;;;;;;;;22.10;99.90;;;;;;5029079;28;20004;-72